createdAt,value
2023-05-06T00:00:25.952Z,12.38
2023-05-06T00:02:53.520Z,12.35
2023-05-06T00:05:20.894Z,12.26
2023-05-06T00:07:48.183Z,12.15
2023-05-06T00:10:15.927Z,12.08
2023-05-06T00:12:43.537Z,11.96
2023-05-06T00:15:11.812Z,11.90
2023-05-06T00:17:39.326Z,11.69
2023-05-06T00:20:07.901Z,11.65
2023-05-06T00:22:35.176Z,11.53
2023-05-06T00:25:02.878Z,11.45
2023-05-06T00:27:30.157Z,11.34
2023-05-06T00:29:58.201Z,11.51
2023-05-06T00:32:25.547Z,11.56
2023-05-06T00:34:52.800Z,11.77
2023-05-06T00:37:20.033Z,12.00
2023-05-06T00:39:47.304Z,11.96
2023-05-06T00:42:14.488Z,11.95
2023-05-06T00:44:41.779Z,11.70
2023-05-06T00:47:09.419Z,11.87
2023-05-06T00:49:36.629Z,12.04
2023-05-06T00:52:04.564Z,11.91
2023-05-06T00:54:32.024Z,11.98
2023-05-06T00:56:59.489Z,11.96
2023-05-06T00:59:27.058Z,12.12
2023-05-06T01:01:54.564Z,12.08
2023-05-06T01:04:24.108Z,12.16
2023-05-06T01:07:19.301Z,12.26
2023-05-06T01:10:06.701Z,12.22
2023-05-06T01:12:44.083Z,12.25
2023-05-06T01:15:44.846Z,12.22
2023-05-06T01:18:17.812Z,12.20
2023-05-06T01:20:51.025Z,12.10
2023-05-06T01:23:19.145Z,12.04
2023-05-06T01:25:46.465Z,11.99
2023-05-06T01:28:14.197Z,11.94
2023-05-06T01:30:58.022Z,11.80
2023-05-06T01:33:48.192Z,11.65
2023-05-06T01:37:25.965Z,11.52
2023-05-06T01:39:57.920Z,11.49
2023-05-06T01:42:27.554Z,11.35
2023-05-06T01:44:57.311Z,11.23
2023-05-06T01:47:25.621Z,11.14
2023-05-06T01:49:53.148Z,11.13
2023-05-06T01:52:22.327Z,11.20
2023-05-06T01:54:50.328Z,11.14
2023-05-06T01:57:17.609Z,11.05
2023-05-06T01:59:45.315Z,10.83
2023-05-06T02:02:12.617Z,10.77
2023-05-06T02:04:39.848Z,10.80
2023-05-06T02:07:07.351Z,10.78
2023-05-06T02:09:34.702Z,10.85
2023-05-06T02:12:03.557Z,10.79
2023-05-06T02:14:30.815Z,10.75
2023-05-06T02:17:05.047Z,10.75
2023-05-06T02:19:32.561Z,10.77
2023-05-06T02:21:59.824Z,10.62
2023-05-06T02:24:27.173Z,10.47
2023-05-06T02:26:54.558Z,10.54
2023-05-06T02:29:21.966Z,10.55
2023-05-06T02:31:49.249Z,10.58
2023-05-06T02:34:17.373Z,10.62
2023-05-06T02:36:44.657Z,10.61
2023-05-06T02:39:12.000Z,10.67
2023-05-06T02:41:39.573Z,10.62
2023-05-06T02:44:06.873Z,10.63
2023-05-06T02:46:34.762Z,10.62
2023-05-06T02:49:02.293Z,10.75
2023-05-06T02:51:31.131Z,10.72
2023-05-06T02:53:58.446Z,10.64
2023-05-06T02:56:25.988Z,10.72
2023-05-06T02:58:53.846Z,10.92
2023-05-06T03:01:21.321Z,10.91
2023-05-06T03:03:48.611Z,11.00
2023-05-06T03:06:15.871Z,10.98
2023-05-06T03:08:43.119Z,11.14
2023-05-06T03:11:10.331Z,11.23
2023-05-06T03:13:37.789Z,11.25
2023-05-06T03:16:05.634Z,11.30
2023-05-06T03:18:33.035Z,11.35
2023-05-06T03:21:00.646Z,11.22
2023-05-06T03:23:28.583Z,11.28
2023-05-06T03:25:55.888Z,11.30
2023-05-06T03:28:23.430Z,11.30
2023-05-06T03:30:50.952Z,11.24
2023-05-06T03:33:18.368Z,11.13
2023-05-06T03:35:45.657Z,11.12
2023-05-06T03:38:12.854Z,11.10
2023-05-06T03:40:50.697Z,11.07
2023-05-06T03:43:18.042Z,11.09
2023-05-06T03:45:48.265Z,11.12
2023-05-06T03:48:15.671Z,11.15
2023-05-06T03:50:44.400Z,11.35
2023-05-06T03:53:13.267Z,11.45
2023-05-06T03:55:43.019Z,11.53
2023-05-06T03:58:12.447Z,11.70
2023-05-06T04:00:41.669Z,11.86
2023-05-06T04:03:08.968Z,12.00
2023-05-06T04:05:42.790Z,12.14
2023-05-06T04:08:12.445Z,12.09
2023-05-06T04:10:41.135Z,12.33
2023-05-06T04:13:15.992Z,12.58
2023-05-06T04:15:44.829Z,12.74
2023-05-06T04:18:19.362Z,13.13
2023-05-06T04:20:55.617Z,13.61
2023-05-06T04:23:23.232Z,13.98
2023-05-06T04:25:50.800Z,14.54
2023-05-06T04:28:21.915Z,14.87
2023-05-06T04:30:51.771Z,15.14
2023-05-06T04:33:22.390Z,15.42
2023-05-06T04:35:56.704Z,15.78
2023-05-06T04:38:30.331Z,15.96
2023-05-06T04:40:57.793Z,15.77
2023-05-06T04:43:27.759Z,15.66
2023-05-06T04:46:01.785Z,15.51
2023-05-06T04:48:32.772Z,15.34
2023-05-06T04:51:01.695Z,15.23
2023-05-06T04:53:30.199Z,15.29
2023-05-06T04:55:57.762Z,15.23
2023-05-06T04:58:25.149Z,15.44
2023-05-06T05:00:52.684Z,15.41
2023-05-06T05:03:20.138Z,15.70
2023-05-06T05:05:47.751Z,16.09
2023-05-06T05:08:18.981Z,16.23
2023-05-06T05:10:46.384Z,16.45
2023-05-06T05:13:19.389Z,16.56
2023-05-06T05:15:46.844Z,16.53
2023-05-06T05:18:15.710Z,16.55
2023-05-06T05:20:44.776Z,16.88
2023-05-06T05:23:14.187Z,17.06
2023-05-06T05:25:44.465Z,17.20
2023-05-06T05:28:12.467Z,16.94
2023-05-06T05:30:40.291Z,17.20
2023-05-06T05:33:09.263Z,17.20
2023-05-06T05:35:37.703Z,17.34
2023-05-06T05:38:05.078Z,17.35
2023-05-06T05:40:32.512Z,17.48
2023-05-06T05:42:59.736Z,17.18
2023-05-06T05:45:33.141Z,17.39
2023-05-06T05:48:00.746Z,17.57
2023-05-06T05:50:28.022Z,17.74
2023-05-06T05:52:57.197Z,17.78
2023-05-06T05:55:25.628Z,17.81
2023-05-06T05:57:52.824Z,17.80
2023-05-06T06:00:21.796Z,17.66
2023-05-06T06:02:52.833Z,17.57
2023-05-06T06:05:21.532Z,17.48
2023-05-06T06:07:48.912Z,17.59
2023-05-06T06:10:16.723Z,17.67
2023-05-06T06:12:44.991Z,17.53
2023-05-06T06:15:15.925Z,17.52
2023-05-06T06:17:45.407Z,17.49
2023-05-06T06:20:13.418Z,17.61
2023-05-06T06:22:41.113Z,17.65
2023-05-06T06:25:09.397Z,18.08
2023-05-06T06:27:37.289Z,18.44
2023-05-06T06:30:07.137Z,18.61
2023-05-06T06:32:34.525Z,18.70
2023-05-06T06:35:01.864Z,18.78
2023-05-06T06:37:29.283Z,19.26
2023-05-06T06:39:56.530Z,19.57
2023-05-06T06:42:23.802Z,19.76
2023-05-06T06:45:08.658Z,19.72
2023-05-06T06:47:36.198Z,19.41
2023-05-06T06:50:03.702Z,18.91
2023-05-06T06:52:30.987Z,19.24
2023-05-06T06:54:58.361Z,19.69
2023-05-06T06:57:25.925Z,19.89
2023-05-06T06:59:53.883Z,19.94
2023-05-06T07:02:22.329Z,19.57
2023-05-06T07:04:49.797Z,19.81
2023-05-06T07:07:17.022Z,20.20
2023-05-06T07:09:44.563Z,20.59
2023-05-06T07:12:12.322Z,20.71
2023-05-06T07:14:39.655Z,21.04
2023-05-06T07:17:06.945Z,21.50
2023-05-06T07:19:34.177Z,22.40
2023-05-06T07:22:03.172Z,23.06
2023-05-06T07:24:30.426Z,22.94
2023-05-06T07:26:57.848Z,22.94
2023-05-06T07:29:25.117Z,22.22
2023-05-06T07:31:52.395Z,22.09
2023-05-06T07:34:20.170Z,21.84
2023-05-06T07:36:47.390Z,21.50
2023-05-06T07:39:15.030Z,21.10
2023-05-06T07:41:42.220Z,20.63
2023-05-06T07:44:09.467Z,20.45
2023-05-06T07:46:36.940Z,20.14
2023-05-06T07:49:04.330Z,19.99
2023-05-06T07:51:31.959Z,20.03
2023-05-06T07:53:59.202Z,19.81
2023-05-06T07:56:26.434Z,19.84
2023-05-06T07:58:54.121Z,19.79
2023-05-06T08:01:21.380Z,19.88
2023-05-06T08:03:49.127Z,19.75
2023-05-06T08:06:16.726Z,19.44
2023-05-06T08:08:43.950Z,19.50
2023-05-06T08:11:11.369Z,19.35
2023-05-06T08:13:38.649Z,19.27
2023-05-06T08:16:07.126Z,19.15
2023-05-06T08:18:34.502Z,19.34
2023-05-06T08:21:01.868Z,19.55
2023-05-06T08:23:29.080Z,19.61
2023-05-06T08:25:56.353Z,19.49
2023-05-06T08:28:24.643Z,19.50
2023-05-06T08:30:52.647Z,19.21
2023-05-06T08:33:20.146Z,18.77
2023-05-06T08:35:47.923Z,18.78
2023-05-06T08:38:15.176Z,18.75
2023-05-06T08:40:44.591Z,18.86
2023-05-06T08:43:17.478Z,18.55
2023-05-06T08:45:44.883Z,18.34
2023-05-06T08:48:12.495Z,17.67
2023-05-06T08:50:43.468Z,17.51
2023-05-06T08:53:16.055Z,17.40
2023-05-06T08:55:44.380Z,17.43
2023-05-06T08:58:15.969Z,17.58
2023-05-06T09:00:44.426Z,17.26
2023-05-06T09:03:11.770Z,17.30
2023-05-06T09:05:39.235Z,17.34
2023-05-06T09:08:06.553Z,17.25
2023-05-06T09:10:44.905Z,17.22
2023-05-06T09:13:19.094Z,17.31
2023-05-06T09:15:48.903Z,17.27
2023-05-06T09:18:16.900Z,17.05
2023-05-06T09:20:49.420Z,16.96
2023-05-06T09:23:18.472Z,16.79
2023-05-06T09:25:47.828Z,16.94
2023-05-06T09:28:15.602Z,16.96
2023-05-06T09:30:46.345Z,16.84
2023-05-06T09:33:14.188Z,16.62
2023-05-06T09:35:43.899Z,16.66
2023-05-06T09:38:11.782Z,16.73
2023-05-06T09:40:39.609Z,16.70
2023-05-06T09:43:07.882Z,16.69
2023-05-06T09:45:36.415Z,16.59
2023-05-06T09:48:04.353Z,16.76
2023-05-06T09:50:33.571Z,16.29
2023-05-06T09:53:03.763Z,16.48
2023-05-06T09:55:31.332Z,16.54
2023-05-06T09:58:00.586Z,16.54
2023-05-06T10:00:30.001Z,16.49
2023-05-06T10:02:59.089Z,16.53
2023-05-06T10:05:29.097Z,16.21
2023-05-06T10:07:58.351Z,16.27
2023-05-06T10:10:28.538Z,16.46
2023-05-06T10:12:56.603Z,16.47
2023-05-06T10:15:26.476Z,16.71
2023-05-06T10:17:55.385Z,16.58
2023-05-06T10:20:26.618Z,16.58
2023-05-06T10:23:15.133Z,16.30
2023-05-06T10:25:44.980Z,16.01
2023-05-06T10:28:17.101Z,16.16
2023-05-06T10:30:58.348Z,16.12
2023-05-06T10:33:27.592Z,16.13
2023-05-06T10:36:18.396Z,15.95
2023-05-06T10:38:57.205Z,15.95
2023-05-06T10:41:28.101Z,15.98
2023-05-06T10:43:57.180Z,15.70
2023-05-06T10:46:26.986Z,15.97
2023-05-06T10:49:06.790Z,16.22
2023-05-06T10:51:38.786Z,16.37
2023-05-06T10:54:08.310Z,16.48
2023-05-06T10:57:09.173Z,16.40
2023-05-06T10:59:37.187Z,16.16
2023-05-06T11:02:07.951Z,16.07
2023-05-06T11:04:35.807Z,16.08
2023-05-06T11:07:15.546Z,16.10
2023-05-06T11:10:08.272Z,16.12
2023-05-06T11:12:49.903Z,16.01
2023-05-06T11:15:39.515Z,16.38
2023-05-06T11:18:37.550Z,16.37
2023-05-06T11:21:08.259Z,16.21
2023-05-06T11:23:52.294Z,16.08
2023-05-06T11:26:21.437Z,16.06
2023-05-06T11:28:51.622Z,16.03
2023-05-06T11:31:22.343Z,15.87
2023-05-06T11:33:53.252Z,15.78
2023-05-06T11:36:22.021Z,15.73
2023-05-06T11:38:52.551Z,15.72
2023-05-06T11:41:22.172Z,15.62
2023-05-06T11:43:51.617Z,15.76
2023-05-06T11:46:20.927Z,15.83
2023-05-06T11:48:48.871Z,15.75
2023-05-06T11:51:21.599Z,15.80
2023-05-06T11:53:49.020Z,15.96
2023-05-06T11:56:16.361Z,16.08
2023-05-06T11:58:44.249Z,16.32
2023-05-06T12:01:11.444Z,17.35
2023-05-06T12:03:39.186Z,18.52
2023-05-06T12:06:06.760Z,18.97
2023-05-06T12:08:37.394Z,20.39
2023-05-06T12:11:09.224Z,21.09
2023-05-06T12:13:37.971Z,21.70
2023-05-06T12:16:07.862Z,22.06
2023-05-06T12:18:36.037Z,21.87
2023-05-06T12:21:04.358Z,21.78
2023-05-06T12:23:32.058Z,21.57
2023-05-06T12:26:05.465Z,20.50
2023-05-06T12:28:36.045Z,19.85
2023-05-06T12:31:24.349Z,19.40
2023-05-06T12:33:52.405Z,19.06
2023-05-06T12:36:20.605Z,19.63
2023-05-06T12:38:58.702Z,20.16
2023-05-06T12:41:46.565Z,19.48
2023-05-06T12:44:40.240Z,19.50
2023-05-06T12:47:29.255Z,19.28
2023-05-06T12:49:59.322Z,19.30
2023-05-06T12:52:30.175Z,19.26
2023-05-06T12:55:01.045Z,19.51
2023-05-06T12:57:28.417Z,19.76
2023-05-06T12:59:56.509Z,20.13
2023-05-06T13:02:24.242Z,20.70
2023-05-06T13:04:51.901Z,20.60
2023-05-06T13:07:19.384Z,21.10
2023-05-06T13:09:46.691Z,21.25
2023-05-06T13:12:14.010Z,22.08
2023-05-06T13:14:41.269Z,21.94
2023-05-06T13:17:09.066Z,21.66
2023-05-06T13:19:36.630Z,21.12
2023-05-06T13:22:03.951Z,20.54
2023-05-06T13:24:32.420Z,20.91
2023-05-06T13:27:01.444Z,21.16
2023-05-06T13:29:29.902Z,20.85
2023-05-06T13:31:57.763Z,20.50
2023-05-06T13:34:26.073Z,19.91
2023-05-06T13:36:54.870Z,20.84
2023-05-06T13:39:22.864Z,21.68
2023-05-06T13:41:50.708Z,21.35
2023-05-06T13:44:21.869Z,20.61
2023-05-06T13:46:49.519Z,20.50
2023-05-06T13:49:18.156Z,20.72
2023-05-06T13:51:45.711Z,21.27
2023-05-06T13:54:12.989Z,20.87
2023-05-06T13:56:40.304Z,20.19
2023-05-06T13:59:08.290Z,20.33
2023-05-06T14:01:36.398Z,19.95
2023-05-06T14:04:03.890Z,20.01
2023-05-06T14:06:31.592Z,20.76
2023-05-06T14:08:59.045Z,21.19
2023-05-06T14:11:26.418Z,20.49
2023-05-06T14:13:57.219Z,19.77
2023-05-06T14:16:24.765Z,19.86
2023-05-06T14:18:52.033Z,19.64
2023-05-06T14:21:19.310Z,19.91
2023-05-06T14:23:46.639Z,20.15
2023-05-06T14:26:14.314Z,20.21
2023-05-06T14:28:41.741Z,20.12
2023-05-06T14:31:09.099Z,19.92
2023-05-06T14:33:39.076Z,19.78
2023-05-06T14:36:07.116Z,19.97
2023-05-06T14:38:34.571Z,19.90
2023-05-06T14:41:02.153Z,19.78
2023-05-06T14:43:29.464Z,19.45
2023-05-06T14:45:56.843Z,19.31
2023-05-06T14:48:25.469Z,19.62
2023-05-06T14:50:53.204Z,19.80
2023-05-06T14:53:20.499Z,19.88
2023-05-06T14:55:49.058Z,19.74
2023-05-06T14:58:16.378Z,19.85
2023-05-06T15:00:44.953Z,20.17
2023-05-06T15:03:12.300Z,20.44
2023-05-06T15:05:39.802Z,20.30
2023-05-06T15:08:07.406Z,19.97
2023-05-06T15:10:34.762Z,19.85
2023-05-06T15:13:02.294Z,19.69
2023-05-06T15:15:29.648Z,19.75
2023-05-06T15:17:56.939Z,19.57
2023-05-06T15:20:24.741Z,19.38
2023-05-06T15:22:52.054Z,19.13
2023-05-06T15:25:30.921Z,18.84
2023-05-06T15:28:02.119Z,18.63
2023-05-06T15:30:29.546Z,18.31
2023-05-06T15:32:57.056Z,18.14
2023-05-06T15:35:24.386Z,18.08
2023-05-06T15:37:58.776Z,17.88
2023-05-06T15:40:27.111Z,17.83
2023-05-06T15:42:54.560Z,17.78
2023-05-06T15:45:22.704Z,17.94
2023-05-06T15:47:49.993Z,18.10
2023-05-06T15:50:31.811Z,18.39
2023-05-06T15:53:01.612Z,18.46
2023-05-06T15:55:29.298Z,18.73
2023-05-06T15:57:59.137Z,18.86
2023-05-06T16:00:28.114Z,18.89
2023-05-06T16:02:55.832Z,18.80
2023-05-06T16:05:23.201Z,18.83
2023-05-06T16:07:50.455Z,18.73
2023-05-06T16:10:17.899Z,18.85
2023-05-06T16:12:45.332Z,18.87
2023-05-06T16:15:12.648Z,18.95
2023-05-06T16:17:40.781Z,18.88
2023-05-06T16:20:10.581Z,18.71
2023-05-06T16:22:41.407Z,18.40
2023-05-06T16:25:09.221Z,18.38
2023-05-06T16:27:36.648Z,18.25
2023-05-06T16:30:04.448Z,18.27
2023-05-06T16:32:31.677Z,18.11
2023-05-06T16:34:59.516Z,18.05
2023-05-06T16:37:26.776Z,18.05
2023-05-06T16:39:54.057Z,17.96
2023-05-06T16:42:21.518Z,17.93
2023-05-06T16:44:48.788Z,17.96
2023-05-06T16:47:23.536Z,17.98
2023-05-06T16:49:51.146Z,17.85
2023-05-06T16:52:19.315Z,17.89
2023-05-06T16:54:46.656Z,17.78
2023-05-06T16:57:14.056Z,17.74
2023-05-06T16:59:41.329Z,17.76
2023-05-06T17:02:08.642Z,17.75
2023-05-06T17:04:36.790Z,17.77
2023-05-06T17:07:04.810Z,17.63
2023-05-06T17:09:32.249Z,17.53
2023-05-06T17:11:59.829Z,17.50
2023-05-06T17:14:28.077Z,17.27
2023-05-06T17:16:56.339Z,17.07
2023-05-06T17:19:23.897Z,16.96
2023-05-06T17:21:51.129Z,16.93
2023-05-06T17:24:18.407Z,16.64
2023-05-06T17:26:45.959Z,16.40
2023-05-06T17:29:13.424Z,16.27
2023-05-06T17:31:40.687Z,16.15
2023-05-06T17:34:07.990Z,16.00
2023-05-06T17:36:35.414Z,16.01
2023-05-06T17:39:07.829Z,15.95
2023-05-06T17:41:35.428Z,16.01
2023-05-06T17:44:03.021Z,15.84
2023-05-06T17:46:31.997Z,15.79
2023-05-06T17:48:59.503Z,15.68
2023-05-06T17:51:26.989Z,15.71
2023-05-06T17:53:54.269Z,15.52
2023-05-06T17:56:21.700Z,15.74
2023-05-06T17:58:48.906Z,15.57
2023-05-06T18:01:16.149Z,15.64
2023-05-06T18:03:44.414Z,15.55
2023-05-06T18:06:12.657Z,15.61
2023-05-06T18:08:39.999Z,15.55
2023-05-06T18:11:07.238Z,15.53
2023-05-06T18:13:36.702Z,15.24
2023-05-06T18:16:05.060Z,15.06
2023-05-06T18:18:32.532Z,15.05
2023-05-06T18:20:59.872Z,15.10
2023-05-06T18:23:27.083Z,15.11
2023-05-06T18:25:54.342Z,15.00
2023-05-06T18:28:21.655Z,14.99
2023-05-06T18:30:49.027Z,15.02
2023-05-06T18:33:16.465Z,15.02
2023-05-06T18:35:43.857Z,15.09
2023-05-06T18:38:11.761Z,14.93
2023-05-06T18:40:40.474Z,14.99
2023-05-06T18:43:08.477Z,14.91
2023-05-06T18:45:36.128Z,14.93
2023-05-06T18:48:04.409Z,15.08
2023-05-06T18:50:31.927Z,15.10
2023-05-06T18:52:59.279Z,14.93
2023-05-06T18:55:26.767Z,14.90
2023-05-06T18:57:54.150Z,14.68
2023-05-06T19:00:22.586Z,14.55
2023-05-06T19:02:49.900Z,14.64
2023-05-06T19:05:17.715Z,14.82
2023-05-06T19:07:44.901Z,14.82
2023-05-06T19:10:14.105Z,14.84
2023-05-06T19:12:41.799Z,14.83
2023-05-06T19:15:12.345Z,14.93
2023-05-06T19:17:40.315Z,14.72
2023-05-06T19:20:09.023Z,14.60
2023-05-06T19:22:36.508Z,14.47
2023-05-06T19:25:04.205Z,14.65
2023-05-06T19:27:31.394Z,14.60
2023-05-06T19:29:58.845Z,14.23
2023-05-06T19:32:26.329Z,14.24
2023-05-06T19:34:53.676Z,14.05
2023-05-06T19:37:20.921Z,13.88
2023-05-06T19:39:49.610Z,13.97
2023-05-06T19:42:16.856Z,13.99
2023-05-06T19:44:44.272Z,13.94
2023-05-06T19:47:12.763Z,14.06
2023-05-06T19:49:40.290Z,14.23
2023-05-06T19:52:07.682Z,14.19
2023-05-06T19:54:35.048Z,14.05
2023-05-06T19:57:02.564Z,14.17
2023-05-06T19:59:29.835Z,13.97
2023-05-06T20:02:00.754Z,13.83
2023-05-06T20:04:28.718Z,13.88
2023-05-06T20:06:55.968Z,14.06
2023-05-06T20:09:23.284Z,14.22
2023-05-06T20:11:50.657Z,14.07
2023-05-06T20:14:17.895Z,13.77
2023-05-06T20:16:45.334Z,13.90
2023-05-06T20:19:13.048Z,13.73
2023-05-06T20:21:40.434Z,13.57
2023-05-06T20:24:07.878Z,13.57
2023-05-06T20:26:35.214Z,13.44
2023-05-06T20:29:02.380Z,13.64
2023-05-06T20:31:29.715Z,13.77
2023-05-06T20:33:57.068Z,13.62
2023-05-06T20:36:24.401Z,13.69
2023-05-06T20:38:52.157Z,13.57
2023-05-06T20:41:19.495Z,13.31
2023-05-06T20:43:47.160Z,13.50
2023-05-06T20:46:14.524Z,13.53
2023-05-06T20:48:42.167Z,13.39
2023-05-06T20:51:09.385Z,13.54
2023-05-06T20:53:37.322Z,13.56
2023-05-06T20:56:07.146Z,13.60
2023-05-06T20:58:34.504Z,13.57
2023-05-06T21:01:03.188Z,13.57
2023-05-06T21:03:31.125Z,13.66
2023-05-06T21:05:58.400Z,13.62
2023-05-06T21:08:25.961Z,13.57
2023-05-06T21:10:53.152Z,13.50
2023-05-06T21:13:20.869Z,13.48
2023-05-06T21:15:48.208Z,13.32
2023-05-06T21:18:17.089Z,13.17
2023-05-06T21:20:44.503Z,13.31
2023-05-06T21:23:11.914Z,13.51
2023-05-06T21:25:39.208Z,13.61
2023-05-06T21:28:06.720Z,13.56
2023-05-06T21:30:36.277Z,13.31
2023-05-06T21:33:06.489Z,13.28
2023-05-06T21:35:34.614Z,13.07
2023-05-06T21:38:01.942Z,13.25
2023-05-06T21:40:29.355Z,13.39
2023-05-06T21:42:57.070Z,13.31
2023-05-06T21:45:24.367Z,13.27
2023-05-06T21:47:51.726Z,13.15
2023-05-06T21:50:19.060Z,12.90
2023-05-06T21:52:46.268Z,12.94
2023-05-06T21:55:13.729Z,12.76
2023-05-06T21:57:41.143Z,12.83
2023-05-06T22:00:12.101Z,12.93
2023-05-06T22:02:40.786Z,13.08
2023-05-06T22:05:09.342Z,13.15
2023-05-06T22:07:36.819Z,13.04
2023-05-06T22:10:06.219Z,13.08
2023-05-06T22:12:35.322Z,12.96
2023-05-06T22:15:03.032Z,12.88
2023-05-06T22:17:32.799Z,13.18
2023-05-06T22:20:02.823Z,13.09
2023-05-06T22:22:30.716Z,13.03
2023-05-06T22:25:01.077Z,12.96
2023-05-06T22:27:28.361Z,12.91
2023-05-06T22:29:55.578Z,12.78
2023-05-06T22:32:22.911Z,12.42
2023-05-06T22:34:50.258Z,12.46
2023-05-06T22:37:17.608Z,12.57
2023-05-06T22:39:44.948Z,12.62
2023-05-06T22:42:12.255Z,12.70
2023-05-06T22:44:39.486Z,12.63
2023-05-06T22:47:06.894Z,12.65
2023-05-06T22:49:34.134Z,12.75
2023-05-06T22:52:01.386Z,12.61
2023-05-06T22:54:28.663Z,12.79
2023-05-06T22:56:56.043Z,12.76
2023-05-06T22:59:23.322Z,12.45
2023-05-06T23:01:50.553Z,12.44
2023-05-06T23:04:17.848Z,12.48
2023-05-06T23:06:45.045Z,12.52
2023-05-06T23:09:13.551Z,12.39
2023-05-06T23:11:40.988Z,12.47
2023-05-06T23:14:08.282Z,12.45
2023-05-06T23:16:35.608Z,12.18
2023-05-06T23:19:02.875Z,12.37
2023-05-06T23:21:30.149Z,12.39
2023-05-06T23:23:57.354Z,12.42
2023-05-06T23:26:24.742Z,12.55
2023-05-06T23:28:52.346Z,12.53
2023-05-06T23:31:19.662Z,12.58
2023-05-06T23:33:46.925Z,12.59
2023-05-06T23:36:14.180Z,12.56
2023-05-06T23:38:41.323Z,12.24
2023-05-06T23:41:08.594Z,12.36
2023-05-06T23:43:35.830Z,12.40
2023-05-06T23:46:03.055Z,12.31
2023-05-06T23:48:30.471Z,12.26
2023-05-06T23:50:57.775Z,12.14
2023-05-06T23:53:25.018Z,12.34
2023-05-06T23:55:52.230Z,12.15
2023-05-06T23:58:19.456Z,12.30
